Data for 04/22/2008

Time Sea-Level Adjusted Pressure Absolute Pressure Temperature Relative Humidity Dew Point   
(mb) (inHg) (mb) (inHg) (C) (F) (%) (C) (F)
00:05 1015 29.97 844 24.92 -2.7 27.2 63 -8.9 16.1
00:10 1015 29.97 844 24.92 -2.9 26.8 63 -8.9 15.9
00:15 1015 29.97 844 24.92 -2.9 26.7 64 -8.9 16.1
00:20 1015 29.97 844 24.92 -2.7 27.2 63 -8.8 16.2
00:25 1015 29.97 844 24.92 -2.4 27.6 62 -8.7 16.3
00:30 1015 29.97 844 24.92 -2.3 27.8 63 -8.5 16.6
00:35 1015 29.97 844 24.92 -2.3 27.8 62 -8.7 16.4
00:40 1015 29.97 844 24.92 -2.4 27.7 62 -8.7 16.4
00:45 1015 29.97 844 24.92 -2.5 27.4 62 -8.8 16.2
00:50 1015 29.97 844 24.92 -2.7 27.2 64 -8.6 16.5
00:55 1015 29.97 844 24.92 -3 26.7 65 -8.7 16.3
01:00 1015 29.97 844 24.92 -3.2 26.2 66 -8.6 16.5
01:05 1015 29.97 844 24.92 -3.4 26 66 -8.8 16.2
01:10 1015 29.97 844 24.92 -3.3 26.1 66 -8.8 16.1
01:15 1015 29.97 844 24.92 -3 26.6 63 -9.2 15.5
01:20 1015 29.97 844 24.92 -2.7 27.2 60 -9.4 15.1
01:25 1015 29.97 844 24.92 -2.5 27.5 59 -9.5 14.8
01:30 1015 29.97 844 24.92 -2.4 27.7 58 -9.6 14.7
01:35 1015 29.97 844 24.92 -2.3 27.8 57 -9.7 14.5
01:40 1015 29.97 844 24.92 -2.4 27.8 57 -9.7 14.5
01:45 1015 29.97 844 24.92 -2.4 27.7 58 -9.6 14.7
01:50 1015 29.97 844 24.92 -2.4 27.6 59 -9.4 15.1
01:55 1015 29.97 844 24.92 -2.5 27.5 60 -9.2 15.4
02:00 1015 29.97 844 24.92 -2.6 27.2 60 -9.3 15.2
02:05 1015 29.97 844 24.92 -2.8 27 61 -9.4 15.1
02:10 1015 29.97 844 24.92 -2.8 26.9 60 -9.6 14.8
02:15 1015 29.97 844 24.92 -2.7 27.1 59 -9.7 14.6
02:20 1015 29.97 844 24.92 -2.6 27.3 57 -9.9 14.2
02:25 1015 29.97 844 24.92 -2.4 27.6 56 -10.1 13.9
02:30 1015 29.97 844 24.92 -2.4 27.8 55 -10.1 13.7
02:35 1015 29.97 844 24.92 -2.3 27.8 55 -10.1 13.8
02:40 1015 29.97 844 24.92 -2.3 27.9 55 -10.1 13.8
02:45 1015 29.97 844 24.92 -2.3 27.9 55 -10.1 13.8
02:50 1015 29.97 844 24.92 -2.3 27.9 56 -10 14
02:55 1015 29.97 845 24.95 -2.4 27.7 57 -9.9 14.2
03:00 1015 29.97 844 24.92 -2.5 27.5 57 -9.9 14.2
03:05 1015 29.97 845 24.95 -2.4 27.6 57 -9.9 14.2
03:10 1015 29.97 845 24.95 -2.5 27.5 57 -9.9 14.1
03:15 1015 29.97 845 24.95 -2.4 27.6 57 -9.9 14.2
03:20 1015 29.97 845 24.95 -2.4 27.7 58 -9.6 14.8
03:25 1015 29.97 845 24.95 -2.5 27.5 59 -9.4 15.1
03:30 1015 29.97 845 24.95 -2.7 27.1 61 -9.3 15.2
03:35 1015 29.97 845 24.95 -2.8 27 61 -9.4 15.2
03:40 1015 29.97 845 24.95 -2.8 27 61 -9.2 15.5
03:45 1016 30 845 24.95 -2.8 26.9 62 -9.1 15.7
03:50 1016 30 845 24.95 -2.8 26.9 63 -9 15.8
03:55 1016 30 845 24.95 -2.7 27.1 62 -9 15.8
04:00 1016 30 845 24.95 -2.6 27.4 61 -9 15.8
04:05 1016 30 845 24.95 -2.4 27.6 60 -9.1 15.6
04:10 1015 29.97 845 24.95 -2.2 28 58 -9.4 15
04:15 1015 29.97 845 24.95 -2 28.3 57 -9.5 14.9
04:20 1015 29.97 845 24.95 -2 28.3 57 -9.5 14.9
04:25 1015 29.97 845 24.95 -2 28.4 56 -9.6 14.7
04:30 1015 29.97 845 24.95 -2 28.4 56 -9.7 14.5
04:35 1015 29.97 845 24.95 -2 28.4 56 -9.7 14.5
04:40 1015 29.97 845 24.95 -2 28.4 56 -9.7 14.5
04:45 1015 29.97 845 24.95 -2.1 28.3 56 -9.7 14.5
04:50 1015 29.97 845 24.95 -2.3 27.9 60 -9.1 15.7
04:55 1015 29.97 845 24.95 -2.6 27.4 62 -8.9 15.9
05:00 1015 29.97 845 24.95 -2.8 27 63 -8.9 15.9
05:05 1015 29.97 845 24.95 -2.8 27 63 -8.9 16
05:10 1015 29.97 844 24.92 -2.8 27 63 -9 15.9
05:15 1015 29.97 844 24.92 -2.7 27.1 62 -9 15.7
05:20 1015 29.97 844 24.92 -2.7 27.1 62 -9.1 15.6
05:25 1015 29.97 844 24.92 -2.7 27.1 61 -9.1 15.6
05:30 1015 29.97 844 24.92 -2.7 27.2 62 -9.1 15.6
05:35 1015 29.97 844 24.92 -2.7 27.1 61 -9.2 15.4
05:40 1015 29.97 844 24.92 -2.7 27.1 60 -9.4 15.1
05:45 1015 29.97 844 24.92 -2.7 27.1 59 -9.7 14.6
05:50 1015 29.97 844 24.92 -2.6 27.4 56 -10.1 13.8
05:55 1015 29.97 844 24.92 -2.3 27.9 54 -10.3 13.4
06:00 1015 29.97 844 24.92 -2.2 28 53 -10.5 13
06:05 1015 29.97 844 24.92 -2.2 28.1 52 -10.8 12.5
06:10 1015 29.97 844 24.92 -2.1 28.2 51 -10.8 12.5
06:15 1015 29.97 844 24.92 -2.1 28.2 51 -10.8 12.5
06:20 1015 29.97 844 24.92 -2.1 28.2 51 -10.8 12.5
06:25 1015 29.97 844 24.92 -2.2 28.1 52 -10.8 12.6
06:30 1015 29.97 844 24.92 -2.3 27.9 52 -10.9 12.5
06:35 1015 29.97 844 24.92 -2.3 27.9 52 -10.7 12.7
06:40 1015 29.97 844 24.92 -2.3 27.8 52 -10.9 12.4
06:45 1015 29.97 844 24.92 -2.3 27.8 52 -10.9 12.4
06:50 1015 29.97 844 24.92 -2.3 27.8 52 -10.8 12.6
06:55 1015 29.97 844 24.92 -2.3 27.8 53 -10.8 12.6
07:00 1015 29.97 844 24.92 -2.4 27.7 53 -10.8 12.6
07:05 1015 29.97 844 24.92 -2.4 27.6 53 -10.9 12.4
07:10 1015 29.97 844 24.92 -2.3 27.8 52 -11 12.2
07:15 1015 29.97 844 24.92 -2.1 28.2 50 -11.1 12.1
07:20 1015 29.97 844 24.92 -2 28.5 50 -11 12.3
07:25 1015 29.97 845 24.95 -1.9 28.7 50 -11 12.3
07:30 1015 29.97 845 24.95 -1.7 28.9 49 -11.1 12
07:35 1015 29.97 845 24.95 -1.5 29.3 48 -11.1 12
07:40 1015 29.97 845 24.95 -1.3 29.7 47 -11.1 12
07:45 1015 29.97 845 24.95 -1 30.3 46 -11 12.1
07:50 1015 29.97 845 24.95 -0.6 30.8 46 -11 12.3
07:55 1015 29.97 845 24.95 -0.3 31.4 45 -10.9 12.4
08:00 1015 29.97 845 24.95 -0.1 31.9 44 -10.9 12.3
08:05 1016 30 845 24.95 0.2 32.4 43 -11 12.1
08:10 1016 30 845 24.95 0.4 32.8 42 -11 12.1
08:15 1016 30 845 24.95 0.7 33.3 41 -11 12.3
08:20 1016 30 845 24.95 0.9 33.5 42 -10.7 12.7
08:25 1016 30 845 24.95 1.2 34.1 41 -10.8 12.6
08:30 1016 30 845 24.95 1.4 34.5 41 -10.6 12.9
08:35 1016 30 845 24.95 1.7 35 40 -10.6 12.9
08:40 1016 30 845 24.95 1.4 34.5 41 -10.4 13.3
08:45 1015 29.97 845 24.95 0.9 33.6 42 -10.6 13
08:50 1016 30 845 24.95 1.1 34 43 -10.2 13.7
08:55 1016 30 845 24.95 1 33.8 43 -10.3 13.5
09:00 1016 30 845 24.95 1 33.8 44 -9.9 14.1
09:05 1015 29.97 845 24.95 1.6 34.8 43 -9.7 14.6
09:10 1015 29.97 845 24.95 1.9 35.4 41 -10.2 13.7
09:15 1015 29.97 845 24.95 2.3 36.1 39 -10.1 13.8
09:20 1015 29.97 845 24.95 2.5 36.5 38 -10.4 13.3
09:25 1015 29.97 845 24.95 2.9 37.1 39 -9.9 14.2
09:30 1015 29.97 845 24.95 3.2 37.7 38 -9.8 14.3
09:35 1015 29.97 845 24.95 3.4 38.2 37 -9.9 14.2
09:40 1015 29.97 845 24.95 3.6 38.5 36 -10.1 13.8
09:45 1015 29.97 845 24.95 4 39.2 35 -10.3 13.5
09:50 1015 29.97 845 24.95 4.3 39.7 35 -10 14.1
09:55 1016 30 845 24.95 4.3 39.7 37 -9.3 15.3
10:00 1015 29.97 845 24.95 4.1 39.5 32 -11 12.2
10:05 1015 29.97 845 24.95 4 39.1 31 -11.6 11.1
10:10 1015 29.97 845 24.95 4 39.3 31 -11.5 11.3
10:15 1015 29.97 845 24.95 4.4 39.9 31 -11.4 11.5
10:20 1015 29.97 844 24.92 4.6 40.2 31 -11.3 11.7
10:25 1015 29.97 844 24.92 4.5 40.1 31 -11.2 11.8
10:30 1015 29.97 844 24.92 4.6 40.2 30 -11.6 11.1
10:35 1015 29.97 844 24.92 4.6 40.3 30 -11.6 11.1
10:40 1015 29.97 844 24.92 4.6 40.3 30 -11.6 11.2
10:45 1015 29.97 844 24.92 4.8 40.6 30 -11.3 11.7
10:50 1015 29.97 844 24.92 5.1 41.2 30 -11.2 11.9
10:55 1015 29.97 844 24.92 5.2 41.4 29 -11.3 11.6
11:00 1015 29.97 844 24.92 5.2 41.4 29 -11.5 11.3
11:05 1015 29.97 844 24.92 5.6 42.2 30 -10.6 12.9
11:10 1015 29.97 844 24.92 6.1 42.9 28 -11.1 12.1
11:15 1015 29.97 844 24.92 5.9 42.6 28 -11.3 11.6
11:20 1015 29.97 844 24.92 5.9 42.6 29 -10.8 12.5
11:25 1015 29.97 844 24.92 5.8 42.5 29 -10.8 12.5
11:30 1015 29.97 844 24.92 6.2 43.1 30 -10.3 13.4
11:35 1015 29.97 844 24.92 6.5 43.7 29 -10.2 13.7
11:40 1015 29.97 844 24.92 6.5 43.8 29 -10.4 13.4
11:45 1015 29.97 844 24.92 6.9 44.5 28 -10.5 13.1
11:50 1015 29.97 844 24.92 7.1 44.8 28 -10.4 13.2
11:55 1015 29.97 844 24.92 7.2 45 28 -10.1 13.8
12:00 1015 29.97 844 24.92 7.7 45.9 27 -10.1 13.8
12:05 1015 29.97 844 24.92 8.1 46.6 27 -10 14.1
12:10 1015 29.97 844 24.92 8 46.3 27 -9.8 14.3
12:15 1015 29.97 844 24.92 8.1 46.6 27 -9.6 14.6
12:20 1015 29.97 844 24.92 8.1 46.7 27 -9.7 14.6
12:25 1015 29.97 844 24.92 8.1 46.5 28 -9.3 15.2
12:30 1015 29.97 844 24.92 8.1 46.5 26 -10.1 13.8
12:35 1015 29.97 844 24.92 7.9 46.2 27 -10 14
12:40 1015 29.97 844 24.92 8.3 46.9 26 -10 14.1
12:45 1015 29.97 844 24.92 7.5 45.5 27 -10.5 13.1
12:50 1015 29.97 844 24.92 7.2 44.9 28 -10.3 13.4
12:55 1015 29.97 844 24.92 7.2 45 28 -10.3 13.5
13:00 1015 29.97 844 24.92 7.8 46 27 -10.1 13.8
13:05 1015 29.97 844 24.92 7.6 45.7 28 -9.8 14.4
13:10 1015 29.97 844 24.92 7.7 45.8 28 -9.9 14.2
13:15 1015 29.97 844 24.92 7.8 46.1 28 -9.6 14.6
13:20 1015 29.97 844 24.92 8.4 47.2 26 -9.8 14.3
13:25 1015 29.97 844 24.92 8.3 46.9 27 -9.7 14.6
13:30 1015 29.97 844 24.92 8.4 47.1 28 -9.1 15.6
13:35 1015 29.97 844 24.92 8.9 48 26 -9.4 15.2
13:40 1015 29.97 844 24.92 9 48.1 26 -9.4 15.1
13:45 1015 29.97 844 24.92 9.2 48.6 26 -9.5 14.8
13:50 1015 29.97 844 24.92 8.9 48.1 27 -8.9 16
13:55 1015 29.97 844 24.92 9.4 48.8 26 -9.1 15.6
14:00 1015 29.97 844 24.92 9.2 48.6 26 -9.2 15.4
14:05 1015 29.97 844 24.92 9.5 49.2 25 -9.3 15.3
14:10 1015 29.97 844 24.92 9.8 49.6 26 -8.7 16.4
14:15 1015 29.97 844 24.92 9.6 49.3 26 -8.8 16.1
14:20 1014 29.94 844 24.92 10.3 50.6 26 -8.5 16.8
14:25 1014 29.94 844 24.92 10.2 50.4 26 -8.3 17
14:30 1014 29.94 844 24.92 10.4 50.6 26 -8.3 17
14:35 1014 29.94 844 24.92 10.7 51.3 26 -8.2 17.3
14:40 1014 29.94 844 24.92 10.9 51.6 25 -8.3 17
14:45 1014 29.94 844 24.92 10.8 51.5 24 -8.8 16.2
14:50 1015 29.97 844 24.92 10.1 50.2 26 -8.4 16.8
14:55 1014 29.94 844 24.92 10.2 50.3 25 -9 15.7
15:00 1015 29.97 844 24.92 10.7 51.2 25 -8.8 16.2
15:05 1014 29.94 844 24.92 11.3 52.4 24 -8.6 16.6
15:10 1015 29.97 844 24.92 10.7 51.2 25 -8.6 16.5
15:15 1015 29.97 844 24.92 10.4 50.8 26 -8.2 17.3
15:20 1014 29.94 844 24.92 11 51.7 25 -8.4 16.9
15:25 1014 29.94 844 24.92 10.7 51.2 25 -8.4 16.9
15:30 1014 29.94 844 24.92 10.6 51.1 26 -8.2 17.2
15:35 1014 29.94 844 24.92 10.8 51.4 26 -8.2 17.3
15:40 1014 29.94 844 24.92 10.5 50.9 26 -8 17.6
15:45 1014 29.94 843 24.89 10.4 50.7 25 -8.6 16.5
15:50 1014 29.94 843 24.89 10.6 51 25 -8.5 16.7
15:55 1014 29.94 843 24.89 10.6 51 26 -7.9 17.7
16:00 1014 29.94 843 24.89 10.4 50.7 26 -8.1 17.4
16:05 1014 29.94 843 24.89 10.1 50.2 27 -8.3 17.1
16:10 1014 29.94 843 24.89 10.3 50.5 26 -8.4 16.9
16:15 1014 29.94 843 24.89 10.6 51.1 25 -8.4 16.8
16:20 1014 29.94 843 24.89 10.8 51.4 25 -8.6 16.5
16:25 1014 29.94 844 24.92 10.5 50.9 26 -8.3 17
16:30 1014 29.94 844 24.92 10.7 51.2 25 -8.4 16.8
16:35 1014 29.94 844 24.92 10.6 51 25 -8.5 16.7
16:40 1014 29.94 843 24.89 10.7 51.2 25 -8.7 16.4
16:45 1014 29.94 843 24.89 10.7 51.3 25 -8.3 17
16:50 1014 29.94 843 24.89 10.1 50.1 27 -8.3 17
16:55 1014 29.94 843 24.89 10.6 51.2 25 -8.6 16.6
17:00 1014 29.94 843 24.89 10.7 51.2 26 -8.2 17.2
17:05 1014 29.94 844 24.92 10.6 51.1 26 -8.3 17.1
17:10 1014 29.94 844 24.92 10.2 50.3 26 -8.6 16.6
17:15 1014 29.94 844 24.92 10.2 50.3 27 -8.2 17.2
17:20 1014 29.94 844 24.92 10.3 50.5 26 -8.2 17.3
17:25 1014 29.94 844 24.92 10.6 51 26 -7.9 17.7
17:30 1015 29.97 844 24.92 10.3 50.6 27 -7.6 18.2
17:35 1015 29.97 844 24.92 10.6 51 27 -7.8 17.9
17:40 1015 29.97 844 24.92 10.8 51.4 25 -8.2 17.2
17:45 1015 29.97 844 24.92 10.5 51 26 -8.3 17.1
17:50 1015 29.97 844 24.92 10.4 50.7 27 -7.9 17.8
17:55 1015 29.97 844 24.92 10.7 51.2 27 -7.7 18.1
18:00 1015 29.97 844 24.92 10.7 51.2 26 -7.9 17.7
18:05 1015 29.97 844 24.92 10.5 50.9 27 -7.9 17.7
18:10 1015 29.97 844 24.92 10.8 51.4 26 -7.8 17.9
18:15 1015 29.97 844 24.92 10.7 51.2 27 -7.7 18.1
18:20 1015 29.97 844 24.92 10.6 51 26 -8.2 17.2
18:25 1015 29.97 844 24.92 10.7 51.2 27 -7.7 18.2
18:30 1014 29.94 844 24.92 10.7 51.2 26 -8.2 17.3
18:35 1014 29.94 844 24.92 10.6 51 25 -8.5 16.8
18:40 1014 29.94 844 24.92 10.6 51.1 26 -8.2 17.2
18:45 1014 29.94 844 24.92 10.7 51.2 25 -8.7 16.4
18:50 1014 29.94 844 24.92 10.6 51.2 25 -8.5 16.6
18:55 1014 29.94 844 24.92 10.6 51.1 25 -8.5 16.8
19:00 1014 29.94 843 24.89 10.4 50.7 25 -8.6 16.6
19:05 1014 29.94 843 24.89 10.4 50.6 27 -8 17.5
19:10 1014 29.94 843 24.89 10.5 50.8 26 -8.2 17.2
19:15 1014 29.94 843 24.89 10.6 51.1 26 -8.3 17.1
19:20 1014 29.94 843 24.89 10.6 51.1 25 -8.5 16.7
19:25 1014 29.94 843 24.89 10.6 51.1 26 -8.3 17
19:30 1014 29.94 843 24.89 10.6 51 26 -8 17.6
19:35 1014 29.94 843 24.89 10.4 50.8 27 -8 17.7
19:40 1014 29.94 843 24.89 10.4 50.8 27 -7.9 17.8
19:45 1014 29.94 843 24.89 10.4 50.7 27 -7.9 17.8
19:50 1014 29.94 843 24.89 10.1 50.2 27 -7.9 17.8
19:55 1014 29.94 843 24.89 10.1 50.1 27 -8 17.5
20:00 1014 29.94 843 24.89 9.9 49.8 27 -8.1 17.5
20:05 1014 29.94 843 24.89 9.6 49.3 28 -8 17.5
20:10 1014 29.94 843 24.89 9.4 48.9 28 -8.3 17.1
20:15 1014 29.94 843 24.89 9.4 49 28 -8 17.5
20:20 1014 29.94 843 24.89 9.5 49.1 28 -8 17.6
20:25 1014 29.94 843 24.89 9.5 49 29 -7.8 17.9
20:30 1014 29.94 843 24.89 9.3 48.7 29 -8 17.6
20:35 1014 29.94 843 24.89 9.1 48.4 31 -7.1 19.1
20:40 1014 29.94 843 24.89 8.2 46.8 34 -6.7 20
20:45 1014 29.94 843 24.89 7.6 45.6 35 -6.8 19.8
20:50 1014 29.94 843 24.89 7.1 44.7 36 -6.9 19.7
20:55 1014 29.94 843 24.89 6.9 44.4 36 -7.1 19.2
21:00 1014 29.94 844 24.92 6.7 44.1 37 -6.9 19.5
21:05 1014 29.94 844 24.92 6.3 43.4 38 -6.8 19.7
21:10 1014 29.94 844 24.92 5.9 42.7 39 -6.8 19.7
21:15 1014 29.94 844 24.92 5.7 42.2 41 -6.6 20.1
21:20 1014 29.94 844 24.92 5.5 41.9 42 -6.5 20.3
21:25 1014 29.94 844 24.92 5.3 41.5 41 -6.8 19.7
21:30 1014 29.94 844 24.92 5.2 41.4 41 -7 19.4
21:35 1014 29.94 844 24.92 5.2 41.4 40 -7.2 19.1
21:40 1014 29.94 844 24.92 5.2 41.3 42 -6.7 20
21:45 1014 29.94 844 24.92 4.8 40.7 43 -6.8 19.8
21:50 1014 29.94 844 24.92 4.7 40.5 43 -6.7 19.9
21:55 1015 29.97 844 24.92 4.5 40.2 44 -6.6 20.2
22:00 1015 29.97 844 24.92 4.3 39.7 45 -6.6 20.1
22:05 1015 29.97 844 24.92 4.3 39.7 46 -6.4 20.5
22:10 1015 29.97 844 24.92 4.1 39.4 46 -6.5 20.3
22:15 1015 29.97 844 24.92 4.1 39.3 46 -6.6 20
22:20 1015 29.97 844 24.92 4.4 39.9 43 -7.2 19.1
22:25 1014 29.94 844 24.92 4.7 40.4 43 -6.9 19.6
22:30 1014 29.94 844 24.92 4.4 39.9 44 -6.9 19.6
22:35 1014 29.94 844 24.92 4.3 39.7 44 -6.8 19.7
22:40 1014 29.94 844 24.92 4.3 39.7 44 -6.9 19.6
22:45 1014 29.94 844 24.92 4.4 39.9 44 -6.8 19.8
22:50 1014 29.94 844 24.92 4.3 39.8 45 -6.6 20.1
22:55 1014 29.94 843 24.89 4.1 39.5 45 -6.9 19.7
23:00 1014 29.94 843 24.89 4.4 39.9 43 -7.1 19.1
23:05 1014 29.94 843 24.89 4.8 40.6 42 -7 19.4
23:10 1014 29.94 843 24.89 4.8 40.7 42 -7.1 19.1
23:15 1014 29.94 843 24.89 4.9 40.8 43 -6.8 19.8
23:20 1014 29.94 843 24.89 4.6 40.4 43 -6.9 19.7
23:25 1014 29.94 843 24.89 4.7 40.5 43 -6.9 19.5
23:30 1014 29.94 843 24.89 4.7 40.5 43 -6.8 19.7
23:35 1014 29.94 843 24.89 4.5 40.2 45 -6.4 20.4
23:40 1014 29.94 843 24.89 4.3 39.8 46 -6.3 20.7
23:45 1014 29.94 843 24.89 4.4 40 46 -6.2 20.8
23:50 1014 29.94 843 24.89 4 39.3 46 -6.5 20.3
23:55 1014 29.94 843 24.89 3.5 38.3 47 -6.8 19.7
24:00 1014 29.94 843 24.89 3.2 37.8 47 -7 19.5